createdAt,value
2023-03-29T00:02:10.960Z,46.77
2023-03-29T00:05:14.800Z,45.86
2023-03-29T00:08:18.564Z,46.00
2023-03-29T00:11:22.534Z,44.84
2023-03-29T00:14:25.045Z,45.47
2023-03-29T00:17:28.199Z,44.92
2023-03-29T00:20:30.835Z,44.82
2023-03-29T00:23:33.305Z,44.33
2023-03-29T00:26:35.910Z,44.67
2023-03-29T00:29:38.374Z,46.32
2023-03-29T00:32:41.265Z,45.51
2023-03-29T00:35:44.088Z,44.36
2023-03-29T00:38:46.827Z,44.47
2023-03-29T00:41:49.857Z,44.34
2023-03-29T00:45:00.603Z,45.31
2023-03-29T00:48:06.104Z,46.13
2023-03-29T00:51:10.239Z,47.08
2023-03-29T00:54:15.091Z,47.63
2023-03-29T00:57:18.277Z,48.27
2023-03-29T01:00:21.259Z,46.97
2023-03-29T01:03:27.740Z,48.10
2023-03-29T01:06:34.140Z,48.95
2023-03-29T01:09:37.624Z,48.98
2023-03-29T01:12:49.099Z,48.97
2023-03-29T01:15:53.196Z,50.07
2023-03-29T01:18:58.376Z,50.62
2023-03-29T01:22:34.139Z,49.49
2023-03-29T01:26:14.585Z,49.68
2023-03-29T01:29:29.151Z,50.79
2023-03-29T01:32:39.251Z,49.89
2023-03-29T01:35:44.864Z,50.13
2023-03-29T01:38:49.767Z,50.81
2023-03-29T01:42:16.323Z,51.92
2023-03-29T01:45:46.899Z,54.23
2023-03-29T01:48:55.860Z,54.53
2023-03-29T01:52:06.581Z,54.17
2023-03-29T01:55:15.694Z,52.61
2023-03-29T01:58:18.225Z,54.22
2023-03-29T02:01:26.329Z,53.96
2023-03-29T02:04:31.827Z,53.08
2023-03-29T02:07:38.228Z,54.81
2023-03-29T02:10:41.154Z,54.74
2023-03-29T02:13:46.875Z,57.29
2023-03-29T02:16:50.058Z,56.67
2023-03-29T02:19:59.437Z,56.56
2023-03-29T02:23:14.594Z,56.28
2023-03-29T02:26:17.975Z,55.67
2023-03-29T02:29:21.102Z,55.70
2023-03-29T02:32:54.181Z,55.73
2023-03-29T02:36:00.743Z,55.55
2023-03-29T02:39:05.928Z,55.85
2023-03-29T02:42:08.469Z,55.73
2023-03-29T02:45:12.780Z,55.61
2023-03-29T02:48:17.255Z,56.38
2023-03-29T02:51:29.654Z,54.66
2023-03-29T02:54:32.215Z,54.85
2023-03-29T02:57:38.153Z,54.75
2023-03-29T03:00:44.745Z,55.54
2023-03-29T03:03:48.160Z,55.88
2023-03-29T03:06:51.071Z,55.33
2023-03-29T03:09:53.526Z,56.18
2023-03-29T03:12:56.212Z,56.86
2023-03-29T03:15:58.914Z,56.92
2023-03-29T03:19:02.833Z,55.79
2023-03-29T03:22:06.117Z,55.39
2023-03-29T03:25:11.816Z,54.30
2023-03-29T03:28:14.317Z,56.16
2023-03-29T03:31:17.700Z,57.89
2023-03-29T03:34:40.602Z,57.93
2023-03-29T03:37:43.114Z,57.86
2023-03-29T03:40:53.560Z,59.02
2023-03-29T03:43:56.717Z,59.32
2023-03-29T03:46:59.427Z,58.36
2023-03-29T03:50:02.009Z,57.53
2023-03-29T03:53:05.252Z,56.44
2023-03-29T03:56:30.112Z,57.73
2023-03-29T03:59:39.051Z,57.21
2023-03-29T04:02:47.252Z,58.82
2023-03-29T04:05:50.132Z,59.19
2023-03-29T04:08:54.901Z,56.91
2023-03-29T04:12:09.262Z,57.01
2023-03-29T04:15:14.264Z,56.73
2023-03-29T04:18:24.234Z,58.23
2023-03-29T04:21:30.847Z,58.57
2023-03-29T04:24:33.338Z,57.53
2023-03-29T04:27:58.456Z,56.43
2023-03-29T04:31:17.964Z,56.96
2023-03-29T04:34:27.454Z,56.19
2023-03-29T04:37:32.421Z,55.54
2023-03-29T04:40:35.219Z,56.08
2023-03-29T04:43:49.226Z,55.71
2023-03-29T04:47:01.449Z,55.44
2023-03-29T04:50:25.935Z,55.72
2023-03-29T04:53:28.399Z,56.15
2023-03-29T04:56:30.884Z,56.28
2023-03-29T04:59:52.047Z,56.73
2023-03-29T05:03:14.875Z,55.86
2023-03-29T05:06:33.778Z,54.83
2023-03-29T05:09:37.696Z,55.00
2023-03-29T05:12:40.926Z,54.28
2023-03-29T05:15:43.611Z,53.70
2023-03-29T05:18:46.402Z,54.53
2023-03-29T05:21:53.259Z,54.62
2023-03-29T05:24:59.469Z,54.59
2023-03-29T05:28:03.903Z,54.18
2023-03-29T05:31:06.956Z,53.25
2023-03-29T05:34:11.949Z,54.02
2023-03-29T05:37:20.937Z,54.05
2023-03-29T05:40:29.764Z,52.16
2023-03-29T05:43:52.313Z,53.45
2023-03-29T05:46:58.581Z,53.29
2023-03-29T05:50:01.665Z,51.63
2023-03-29T05:53:04.473Z,51.22
2023-03-29T05:56:08.919Z,51.09
2023-03-29T05:59:11.609Z,49.31
2023-03-29T06:02:16.129Z,49.21
2023-03-29T06:05:24.059Z,49.83
2023-03-29T06:08:35.071Z,49.60
2023-03-29T06:11:51.275Z,49.03
2023-03-29T06:15:06.354Z,47.92
2023-03-29T06:18:17.721Z,47.36
2023-03-29T06:21:20.214Z,47.68
2023-03-29T06:24:25.095Z,47.54
2023-03-29T06:27:35.177Z,47.43
2023-03-29T06:30:38.748Z,45.68
2023-03-29T06:33:43.254Z,45.33
2023-03-29T06:37:03.857Z,45.92
2023-03-29T06:40:07.127Z,45.20
2023-03-29T06:43:16.412Z,46.46
2023-03-29T06:46:28.713Z,45.09
2023-03-29T06:49:35.454Z,43.93
2023-03-29T06:53:04.462Z,43.28
2023-03-29T06:56:09.498Z,43.69
2023-03-29T06:59:19.461Z,43.06
2023-03-29T07:02:30.655Z,41.54
2023-03-29T07:05:41.954Z,40.90
2023-03-29T07:08:52.632Z,41.69
2023-03-29T07:12:33.399Z,40.65
2023-03-29T07:15:37.319Z,40.27
2023-03-29T07:19:04.012Z,40.52
2023-03-29T07:22:32.640Z,40.18
2023-03-29T07:25:37.494Z,39.71
2023-03-29T07:28:40.186Z,41.09
2023-03-29T07:31:43.133Z,40.11
2023-03-29T07:35:06.533Z,39.18
2023-03-29T07:38:11.036Z,38.88
2023-03-29T07:41:18.122Z,38.37
2023-03-29T07:44:27.119Z,38.47
2023-03-29T07:47:30.604Z,38.89
2023-03-29T07:50:34.128Z,36.56
2023-03-29T07:53:39.984Z,36.95
2023-03-29T07:56:51.835Z,36.36
2023-03-29T07:59:58.874Z,36.36
2023-03-29T08:03:05.576Z,36.31
2023-03-29T08:06:08.334Z,34.67
2023-03-29T08:09:11.123Z,34.32
2023-03-29T08:12:17.113Z,34.04
2023-03-29T08:15:20.194Z,34.81
2023-03-29T08:18:23.072Z,33.14
2023-03-29T08:21:26.551Z,33.29
2023-03-29T08:24:30.842Z,33.46
2023-03-29T08:27:40.377Z,34.02
2023-03-29T08:30:45.698Z,34.15
2023-03-29T08:33:48.634Z,34.41
2023-03-29T08:37:12.213Z,32.22
2023-03-29T08:40:23.688Z,33.43
2023-03-29T08:44:07.408Z,32.53
2023-03-29T08:47:56.221Z,31.00
2023-03-29T08:51:08.632Z,30.33
2023-03-29T08:54:18.972Z,30.40
2023-03-29T08:57:46.370Z,31.18
2023-03-29T09:00:54.612Z,29.32
2023-03-29T09:04:03.901Z,29.76
2023-03-29T09:07:21.242Z,30.13
2023-03-29T09:10:35.748Z,29.73
2023-03-29T09:13:38.604Z,28.51
2023-03-29T09:16:56.598Z,28.18
2023-03-29T09:20:18.449Z,29.75
2023-03-29T09:23:27.109Z,26.71
2023-03-29T09:27:18.554Z,28.35
2023-03-29T09:30:31.452Z,24.54
2023-03-29T09:33:45.211Z,25.13
2023-03-29T09:37:02.972Z,24.91
2023-03-29T09:40:12.024Z,24.89
2023-03-29T09:43:33.466Z,25.20
2023-03-29T09:46:40.741Z,24.46
2023-03-29T09:49:44.516Z,24.75
2023-03-29T09:52:49.537Z,26.15
2023-03-29T09:55:56.727Z,25.76
2023-03-29T09:59:16.613Z,25.76
2023-03-29T10:02:20.602Z,24.67
2023-03-29T10:05:25.463Z,25.54
2023-03-29T10:08:29.903Z,23.62
2023-03-29T10:11:36.067Z,23.48
2023-03-29T10:14:43.328Z,24.00
2023-03-29T10:17:46.376Z,25.78
2023-03-29T10:20:49.063Z,22.61
2023-03-29T10:23:58.326Z,23.14
2023-03-29T10:27:02.866Z,23.70
2023-03-29T10:30:13.124Z,23.44
2023-03-29T10:33:17.656Z,24.26
2023-03-29T10:36:20.203Z,22.80
2023-03-29T10:39:22.708Z,23.51
2023-03-29T10:42:25.359Z,24.42
2023-03-29T10:45:29.928Z,22.29
2023-03-29T10:48:36.254Z,23.04
2023-03-29T10:51:38.746Z,22.34
2023-03-29T10:54:41.630Z,22.63
2023-03-29T10:57:55.675Z,20.74
2023-03-29T11:00:58.413Z,19.72
2023-03-29T11:04:12.308Z,19.91
2023-03-29T11:07:30.114Z,18.97
2023-03-29T11:11:01.407Z,19.88
2023-03-29T11:14:07.189Z,19.14
2023-03-29T11:17:18.581Z,22.01
2023-03-29T11:20:24.629Z,19.93
2023-03-29T11:23:43.008Z,20.93
2023-03-29T11:27:09.482Z,22.32
2023-03-29T11:30:36.845Z,20.66
2023-03-29T11:34:13.407Z,19.21
2023-03-29T11:37:19.351Z,20.25
2023-03-29T11:40:36.245Z,21.27
2023-03-29T11:43:44.548Z,21.36
2023-03-29T11:46:54.901Z,20.39
2023-03-29T11:49:59.514Z,20.50
2023-03-29T11:53:19.926Z,19.68
2023-03-29T11:56:36.775Z,19.76
2023-03-29T11:59:50.359Z,19.20
2023-03-29T12:02:58.665Z,19.86
2023-03-29T12:06:14.474Z,19.01
2023-03-29T12:09:27.871Z,20.25
2023-03-29T12:12:41.203Z,20.51
2023-03-29T12:15:51.154Z,19.22
2023-03-29T12:18:57.701Z,18.50
2023-03-29T12:22:00.571Z,20.16
2023-03-29T12:25:03.689Z,19.73
2023-03-29T12:28:21.264Z,19.86
2023-03-29T12:31:31.958Z,20.52
2023-03-29T12:35:02.852Z,19.22
2023-03-29T12:38:30.984Z,20.10
2023-03-29T12:41:53.598Z,21.25
2023-03-29T12:44:59.341Z,20.52
2023-03-29T12:48:07.661Z,22.21
2023-03-29T12:51:37.034Z,22.43
2023-03-29T12:54:39.517Z,23.36
2023-03-29T12:57:44.336Z,22.07
2023-03-29T13:00:46.762Z,21.59
2023-03-29T13:03:57.526Z,22.01
2023-03-29T13:07:04.324Z,22.83
2023-03-29T13:10:10.704Z,24.64
2023-03-29T13:13:18.181Z,24.54
2023-03-29T13:16:21.982Z,24.83
2023-03-29T13:19:30.880Z,25.32
2023-03-29T13:23:27.240Z,24.59
2023-03-29T13:26:47.182Z,25.41
2023-03-29T13:30:00.801Z,25.26
2023-03-29T13:33:12.342Z,25.81
2023-03-29T13:36:15.658Z,26.73
2023-03-29T13:39:44.043Z,28.35
2023-03-29T13:42:58.938Z,28.00
2023-03-29T13:46:01.670Z,27.85
2023-03-29T13:49:16.108Z,27.34
2023-03-29T13:52:34.520Z,24.69
2023-03-29T13:55:48.634Z,24.85
2023-03-29T13:59:09.648Z,25.77
2023-03-29T14:02:25.959Z,26.75
2023-03-29T14:05:39.232Z,26.29
2023-03-29T14:08:42.763Z,26.36
2023-03-29T14:11:45.943Z,26.83
2023-03-29T14:14:58.790Z,29.50
2023-03-29T14:18:02.228Z,28.48
2023-03-29T14:21:04.894Z,27.96
2023-03-29T14:24:12.873Z,28.09
2023-03-29T14:27:15.919Z,27.17
2023-03-29T14:30:20.358Z,28.15
2023-03-29T14:33:31.146Z,27.85
2023-03-29T14:36:34.200Z,28.16
2023-03-29T14:39:36.802Z,29.02
2023-03-29T14:42:39.231Z,29.96
2023-03-29T14:45:41.927Z,29.68
2023-03-29T14:48:44.658Z,30.36
2023-03-29T14:51:47.554Z,30.57
2023-03-29T14:54:52.047Z,29.96
2023-03-29T14:57:55.013Z,30.01
2023-03-29T15:00:57.587Z,31.02
2023-03-29T15:04:06.718Z,31.57
2023-03-29T15:07:09.813Z,32.36
2023-03-29T15:10:19.702Z,30.93
2023-03-29T15:13:24.686Z,32.17
2023-03-29T15:16:27.375Z,32.39
2023-03-29T15:19:29.918Z,32.30
2023-03-29T15:22:33.741Z,32.80
2023-03-29T15:25:37.859Z,32.59
2023-03-29T15:28:49.004Z,31.89
2023-03-29T15:31:56.658Z,32.50
2023-03-29T15:35:00.127Z,32.59
2023-03-29T15:38:03.609Z,32.62
2023-03-29T15:41:06.628Z,32.54
2023-03-29T15:44:09.378Z,33.07
2023-03-29T15:47:15.122Z,33.65
2023-03-29T15:50:17.732Z,34.29
2023-03-29T15:53:22.420Z,33.67
2023-03-29T15:56:24.790Z,34.22
2023-03-29T15:59:29.334Z,34.43
2023-03-29T16:02:32.059Z,34.86
2023-03-29T16:05:34.645Z,34.54
2023-03-29T16:08:37.204Z,35.10
2023-03-29T16:11:40.905Z,34.97
2023-03-29T16:14:43.607Z,34.88
2023-03-29T16:17:46.022Z,35.16
2023-03-29T16:20:48.877Z,35.63
2023-03-29T16:23:51.544Z,35.52
2023-03-29T16:26:55.817Z,36.17
2023-03-29T16:29:59.113Z,35.70
2023-03-29T16:33:06.251Z,36.58
2023-03-29T16:36:09.601Z,36.88
2023-03-29T16:39:13.560Z,36.67
2023-03-29T16:42:16.111Z,37.31
2023-03-29T16:45:18.781Z,38.37
2023-03-29T16:48:21.782Z,37.83
2023-03-29T16:51:25.441Z,37.54
2023-03-29T16:54:29.717Z,37.75
2023-03-29T16:57:32.222Z,37.98
2023-03-29T17:00:34.764Z,37.99
2023-03-29T17:03:37.656Z,38.93
2023-03-29T17:06:40.936Z,38.43
2023-03-29T17:09:43.870Z,38.55
2023-03-29T17:12:46.310Z,39.60
2023-03-29T17:15:51.361Z,39.35
2023-03-29T17:18:53.962Z,39.51
2023-03-29T17:21:56.991Z,40.90
2023-03-29T17:24:59.739Z,41.29
2023-03-29T17:28:02.251Z,41.54
2023-03-29T17:31:07.588Z,41.79
2023-03-29T17:34:12.104Z,42.36
2023-03-29T17:37:14.712Z,42.32
2023-03-29T17:40:18.025Z,42.49
2023-03-29T17:43:20.452Z,42.89
2023-03-29T17:46:23.182Z,43.82
2023-03-29T17:49:26.174Z,43.71
2023-03-29T17:52:28.801Z,44.31
2023-03-29T17:55:31.267Z,44.38
2023-03-29T17:58:33.679Z,44.48
2023-03-29T18:01:38.983Z,44.79
2023-03-29T18:04:41.707Z,44.54
2023-03-29T18:07:44.181Z,44.88
2023-03-29T18:10:46.715Z,45.43
2023-03-29T18:13:50.724Z,44.46
2023-03-29T18:16:53.565Z,45.56
2023-03-29T18:19:56.257Z,45.23
2023-03-29T18:22:59.063Z,45.74
2023-03-29T18:26:03.216Z,45.68
2023-03-29T18:29:07.384Z,45.76
2023-03-29T18:32:11.923Z,46.05
2023-03-29T18:35:14.565Z,46.22
2023-03-29T18:38:17.887Z,45.83
2023-03-29T18:41:20.336Z,45.73
2023-03-29T18:44:27.320Z,46.17
2023-03-29T18:47:30.042Z,46.37
2023-03-29T18:50:32.593Z,46.58
2023-03-29T18:53:36.191Z,46.52
2023-03-29T18:56:38.840Z,46.88
2023-03-29T18:59:41.298Z,46.51
2023-03-29T19:02:44.074Z,46.52
2023-03-29T19:05:52.729Z,46.79
2023-03-29T19:08:58.276Z,46.93
2023-03-29T19:12:01.208Z,47.19
2023-03-29T19:15:03.900Z,47.07
2023-03-29T19:18:09.526Z,47.61
2023-03-29T19:21:12.638Z,47.50
2023-03-29T19:24:15.763Z,47.62
2023-03-29T19:27:18.642Z,47.97
2023-03-29T19:30:23.473Z,47.59
2023-03-29T19:33:25.928Z,47.91
2023-03-29T19:36:28.439Z,47.67
2023-03-29T19:39:30.894Z,48.41
2023-03-29T19:42:37.837Z,48.44
2023-03-29T19:45:40.224Z,48.31
2023-03-29T19:48:43.025Z,48.63
2023-03-29T19:51:45.595Z,48.44
2023-03-29T19:54:48.253Z,48.89
2023-03-29T19:57:51.136Z,48.41
2023-03-29T20:00:58.175Z,48.67
2023-03-29T20:04:01.826Z,49.16
2023-03-29T20:07:04.675Z,48.86
2023-03-29T20:10:07.803Z,49.28
2023-03-29T20:13:13.025Z,49.83
2023-03-29T20:16:17.617Z,49.78
2023-03-29T20:19:25.158Z,51.73
2023-03-29T20:22:30.713Z,50.00
2023-03-29T20:25:35.655Z,49.78
2023-03-29T20:28:38.291Z,50.24
2023-03-29T20:31:41.111Z,50.12
2023-03-29T20:34:43.682Z,49.64
2023-03-29T20:37:46.365Z,49.62
2023-03-29T20:40:49.570Z,49.97
2023-03-29T20:43:58.356Z,49.40
2023-03-29T20:47:05.130Z,50.08
2023-03-29T20:50:08.825Z,50.98
2023-03-29T20:53:11.185Z,50.81
2023-03-29T20:56:14.701Z,50.02
2023-03-29T20:59:17.194Z,49.46
2023-03-29T21:02:21.826Z,51.11
2023-03-29T21:05:28.487Z,52.23
2023-03-29T21:08:31.138Z,51.38
2023-03-29T21:11:33.545Z,51.60
2023-03-29T21:14:36.081Z,50.83
2023-03-29T21:17:38.830Z,50.37
2023-03-29T21:20:41.422Z,51.95
2023-03-29T21:23:43.950Z,51.57
2023-03-29T21:26:46.913Z,50.99
2023-03-29T21:29:49.683Z,50.26
2023-03-29T21:32:52.217Z,51.54
2023-03-29T21:35:55.357Z,50.67
2023-03-29T21:38:57.923Z,51.62
2023-03-29T21:42:00.401Z,51.84
2023-03-29T21:45:03.225Z,52.48
2023-03-29T21:48:06.296Z,51.06
2023-03-29T21:51:08.987Z,52.46
2023-03-29T21:54:11.601Z,51.73
2023-03-29T21:57:14.272Z,52.12
2023-03-29T22:00:18.008Z,52.77
2023-03-29T22:03:20.572Z,51.43
2023-03-29T22:06:23.056Z,51.77
2023-03-29T22:09:26.701Z,51.79
2023-03-29T22:12:29.252Z,52.20
2023-03-29T22:15:35.551Z,52.48
2023-03-29T22:18:44.139Z,53.12
2023-03-29T22:21:48.488Z,52.66
2023-03-29T22:24:57.286Z,53.28
2023-03-29T22:27:59.848Z,55.01
2023-03-29T22:31:04.146Z,53.56
2023-03-29T22:34:06.944Z,53.93
2023-03-29T22:37:09.355Z,55.05
2023-03-29T22:40:13.277Z,54.56
2023-03-29T22:43:16.090Z,54.52
2023-03-29T22:46:19.173Z,54.26
2023-03-29T22:49:21.640Z,55.03
2023-03-29T22:52:24.084Z,55.95
2023-03-29T22:55:26.524Z,55.47
2023-03-29T22:58:31.858Z,55.51
2023-03-29T23:01:34.363Z,55.50
2023-03-29T23:04:39.052Z,56.49
2023-03-29T23:07:41.772Z,57.42
2023-03-29T23:10:46.275Z,57.09
2023-03-29T23:13:49.074Z,56.75
2023-03-29T23:16:51.625Z,56.93
2023-03-29T23:19:54.136Z,57.31
2023-03-29T23:22:56.565Z,57.67
2023-03-29T23:25:58.953Z,57.86
2023-03-29T23:29:03.402Z,57.94
2023-03-29T23:32:05.935Z,57.57
2023-03-29T23:35:08.933Z,57.82
2023-03-29T23:38:11.325Z,58.62
2023-03-29T23:41:17.863Z,60.07
2023-03-29T23:44:20.502Z,59.71
2023-03-29T23:47:23.085Z,60.05
2023-03-29T23:50:28.625Z,59.94
2023-03-29T23:53:31.525Z,61.52
2023-03-29T23:56:34.193Z,62.30
2023-03-29T23:59:37.913Z,61.78
